Time;durP1;ratioP1;P1;durP2;ratioP2;P2;SDS_P1;SDS_P2;PMS_P1;PMS_P2;Temp;Humidity;BMP_temperature;BMP_pressure;BME280_temperature;BME280_humidity;BME280_pressure;Samples;Min_cycle;Max_cycle;Signal;HPM_P1;HPM_P2
2022/03/31 00:00:39;;;;;;;44.85;20.65;;;9.60;73.00;;;;;;5047929;28;20118;-79
2022/03/31 00:03:06;;;;;;;45.10;19.45;;;9.70;72.70;;;;;;5034707;28;20071;-79
2022/03/31 00:05:33;;;;;;;42.97;20.80;;;9.70;72.40;;;;;;5034353;28;20033;-79
2022/03/31 00:08:13;;;;;;;45.90;19.63;;;9.70;72.10;;;;;;5034585;28;20051;-79
2022/03/31 00:10:48;;;;;;;42.92;19.95;;;9.80;72.10;;;;;;5034601;28;20048;-79
2022/03/31 00:13:19;;;;;;;43.80;19.45;;;9.80;72.00;;;;;;5033957;28;20480;-79
2022/03/31 00:15:45;;;;;;;42.17;20.58;;;9.80;71.70;;;;;;5034422;28;20056;-79
2022/03/31 00:18:12;;;;;;;48.15;22.02;;;9.80;71.30;;;;;;5034419;28;20036;-79
2022/03/31 00:20:37;;;;;;;54.30;21.23;;;9.80;71.30;;;;;;5035428;28;21715;-79
2022/03/31 00:23:05;;;;;;;39.35;17.65;;;9.70;71.40;;;;;;5034436;28;20029;-79
2022/03/31 00:25:31;;;;;;;38.60;17.95;;;9.70;71.40;;;;;;5035391;28;20102;-79
2022/03/31 00:27:57;;;;;;;45.58;19.73;;;9.60;71.30;;;;;;5034065;28;20061;-79
2022/03/31 00:30:24;;;;;;;52.30;21.92;;;9.50;71.30;;;;;;5035774;28;20025;-79
2022/03/31 00:32:50;;;;;;;44.47;19.00;;;9.50;71.60;;;;;;5035157;28;20032;-79
2022/03/31 00:35:15;;;;;;;45.25;20.65;;;9.40;71.90;;;;;;5051099;28;20025;-79
2022/03/31 00:37:42;;;;;;;44.28;20.15;;;9.40;72.00;;;;;;5055310;28;20111;-79
2022/03/31 00:40:10;;;;;;;45.65;20.67;;;9.40;72.10;;;;;;5055304;28;20118;-79
2022/03/31 00:42:41;;;;;;;49.08;21.75;;;9.30;71.90;;;;;;5049642;28;20036;-79
2022/03/31 00:45:18;;;;;;;46.25;20.35;;;9.30;72.10;;;;;;5035138;28;20033;-79
2022/03/31 00:47:44;;;;;;;41.25;19.67;;;9.30;71.60;;;;;;5044026;28;20544;-79
2022/03/31 00:50:11;;;;;;;37.85;17.85;;;9.30;71.50;;;;;;5038531;28;20025;-79
2022/03/31 00:52:38;;;;;;;43.40;19.30;;;9.30;71.40;;;;;;5033476;28;20051;-79
2022/03/31 00:55:05;;;;;;;51.55;20.52;;;9.20;71.70;;;;;;5054618;28;20052;-79
2022/03/31 00:57:32;;;;;;;43.20;19.13;;;9.20;71.70;;;;;;5054898;28;20506;-79
2022/03/31 00:59:58;;;;;;;45.22;20.42;;;9.10;71.70;;;;;;5045444;28;20492;-79
2022/03/31 01:02:31;;;;;;;53.17;20.77;;;9.10;72.30;;;;;;5035070;28;20029;-79
2022/03/31 01:05:00;;;;;;;44.35;20.25;;;9.10;72.50;;;;;;5035076;28;20067;-79
2022/03/31 01:07:26;;;;;;;51.83;21.40;;;9.10;71.80;;;;;;5035219;28;20032;-79
2022/03/31 01:09:59;;;;;;;44.83;20.85;;;9.10;72.20;;;;;;5055105;28;20078;-79
2022/03/31 01:12:24;;;;;;;42.45;19.75;;;9.10;72.40;;;;;;5059064;28;20025;-79
2022/03/31 01:15:15;;;;;;;49.28;20.42;;;9.10;72.00;;;;;;5057773;28;20087;-79
2022/03/31 01:17:43;;;;;;;48.50;20.95;;;9.00;72.00;;;;;;5039856;28;20159;-79
2022/03/31 01:20:12;;;;;;;41.42;18.95;;;9.10;72.00;;;;;;5037742;28;20068;-80
2022/03/31 01:22:38;;;;;;;48.97;20.98;;;9.00;72.40;;;;;;5037669;28;20038;-79
2022/03/31 01:25:06;;;;;;;44.67;21.58;;;9.00;72.50;;;;;;5037164;28;20479;-79
2022/03/31 01:27:35;;;;;;;46.22;19.77;;;9.00;72.20;;;;;;5037313;28;20079;-79
2022/03/31 01:30:01;;;;;;;44.78;19.98;;;8.90;72.50;;;;;;5049710;28;20407;-79
2022/03/31 01:32:27;;;;;;;43.33;19.67;;;8.90;72.80;;;;;;5058721;28;20029;-79
2022/03/31 01:34:52;;;;;;;49.33;20.35;;;9.00;72.10;;;;;;5050752;28;20057;-79
2022/03/31 01:37:18;;;;;;;48.22;21.48;;;8.90;72.20;;;;;;5037252;28;20032;-79
2022/03/31 01:39:44;;;;;;;49.40;21.70;;;8.90;72.10;;;;;;5038517;28;20022;-79
2022/03/31 01:42:10;;;;;;;43.83;18.60;;;8.80;72.50;;;;;;5038401;28;20033;-79
2022/03/31 01:44:36;;;;;;;45.38;20.98;;;8.80;72.80;;;;;;5057946;28;20029;-79
2022/03/31 01:47:01;;;;;;;44.95;19.15;;;8.80;72.60;;;;;;5058454;28;20107;-79
2022/03/31 01:49:27;;;;;;;42.85;19.60;;;8.80;72.50;;;;;;5048026;28;20169;-79
2022/03/31 01:51:53;;;;;;;46.63;19.17;;;8.90;72.70;;;;;;5037242;28;20025;-79
2022/03/31 01:54:18;;;;;;;46.92;20.88;;;8.80;72.60;;;;;;5038250;28;20050;-79
2022/03/31 01:56:44;;;;;;;44.72;18.77;;;8.80;72.40;;;;;;5038098;28;20040;-80
2022/03/31 01:59:11;;;;;;;47.42;19.80;;;8.70;72.40;;;;;;5046507;28;20036;-79
2022/03/31 02:01:36;;;;;;;42.38;20.00;;;8.70;72.70;;;;;;5058286;28;20032;-79
2022/03/31 02:04:02;;;;;;;47.00;21.95;;;8.70;73.00;;;;;;5058041;28;20416;-79
2022/03/31 02:06:29;;;;;;;44.63;21.30;;;8.70;73.50;;;;;;5045391;28;20033;-79
2022/03/31 02:08:55;;;;;;;45.90;20.80;;;8.70;73.50;;;;;;5037942;28;20388;-79
2022/03/31 02:11:20;;;;;;;47.97;20.83;;;8.70;73.20;;;;;;5036898;28;20099;-79
2022/03/31 02:13:47;;;;;;;47.20;19.58;;;8.70;73.00;;;;;;5037934;28;20025;-79
2022/03/31 02:16:13;;;;;;;43.97;18.80;;;8.70;73.40;;;;;;5037873;28;20116;-79
2022/03/31 02:18:40;;;;;;;43.42;18.40;;;8.60;73.00;;;;;;5037897;28;20488;-79
2022/03/31 02:21:06;;;;;;;56.78;21.98;;;8.60;73.20;;;;;;5037808;28;20029;-79
2022/03/31 02:23:31;;;;;;;41.50;18.80;;;8.60;73.30;;;;;;5037099;28;20410;-80
2022/03/31 02:25:57;;;;;;;50.30;20.98;;;8.70;73.20;;;;;;5035934;28;20377;-79
2022/03/31 02:28:23;;;;;;;50.25;20.98;;;8.70;73.70;;;;;;5037731;28;20021;-79
2022/03/31 02:30:49;;;;;;;47.35;21.55;;;8.70;73.80;;;;;;5037613;28;20029;-79
2022/03/31 02:33:14;;;;;;;52.28;22.83;;;8.80;73.50;;;;;;5037551;28;20021;-79
2022/03/31 02:35:40;;;;;;;48.92;21.73;;;8.80;73.20;;;;;;5037472;28;20087;-79
2022/03/31 02:38:06;;;;;;;45.95;19.70;;;9.00;73.60;;;;;;5036186;28;20116;-79
2022/03/31 02:40:31;;;;;;;48.13;21.30;;;9.00;73.50;;;;;;5037401;28;20404;-79
2022/03/31 02:42:57;;;;;;;49.72;21.02;;;9.10;73.50;;;;;;5036044;28;20116;-79
2022/03/31 02:45:23;;;;;;;43.58;19.50;;;9.10;72.70;;;;;;5037073;28;20034;-79
2022/03/31 02:47:49;;;;;;;45.50;19.75;;;9.20;72.70;;;;;;5047232;28;20083;-79
2022/03/31 02:50:17;;;;;;;51.97;21.58;;;9.10;73.70;;;;;;5057237;28;20036;-79
2022/03/31 02:55:28;;;;;;;44.78;19.58;;;9.10;73.80;;;;;;5056039;28;20055;-79
2022/03/31 02:57:56;;;;;;;46.13;20.40;;;9.10;73.80;;;;;;5055550;28;20036;-79
2022/03/31 03:00:22;;;;;;;44.72;20.33;;;9.20;73.70;;;;;;5054047;28;20111;-79
2022/03/31 03:02:48;;;;;;;42.13;19.67;;;9.20;73.60;;;;;;5037226;28;20018;-80
2022/03/31 03:05:14;;;;;;;43.35;20.50;;;9.30;73.60;;;;;;5036940;28;20030;-79
2022/03/31 03:07:40;;;;;;;46.20;20.08;;;9.30;73.40;;;;;;5035347;28;20032;-79
2022/03/31 03:10:06;;;;;;;46.53;20.45;;;9.30;73.50;;;;;;5036994;28;20464;-79
2022/03/31 03:12:31;;;;;;;46.25;20.85;;;9.30;73.50;;;;;;5036837;28;20065;-79
2022/03/31 03:14:57;;;;;;;48.60;20.95;;;9.40;73.50;;;;;;5036645;28;20152;-79
2022/03/31 03:17:23;;;;;;;48.05;20.83;;;9.30;73.90;;;;;;5036573;28;21342;-79
2022/03/31 03:19:49;;;;;;;45.78;19.98;;;9.30;74.00;;;;;;5035613;28;20406;-79
2022/03/31 03:22:14;;;;;;;46.85;20.42;;;9.20;74.60;;;;;;5035346;28;20125;-79
2022/03/31 03:24:40;;;;;;;44.03;20.40;;;9.20;74.80;;;;;;5051268;28;20620;-79
2022/03/31 03:27:06;;;;;;;41.13;20.25;;;9.20;75.00;;;;;;5056499;28;20108;-79
2022/03/31 03:29:32;;;;;;;41.20;18.45;;;9.20;74.50;;;;;;5050920;28;20067;-79
2022/03/31 03:31:57;;;;;;;46.40;19.73;;;9.30;74.70;;;;;;5036228;28;20028;-79
2022/03/31 03:34:23;;;;;;;46.33;19.70;;;9.30;74.60;;;;;;5044666;28;20029;-79
2022/03/31 03:36:49;;;;;;;41.90;19.17;;;9.40;74.30;;;;;;5037046;28;20037;-80
2022/03/31 03:39:14;;;;;;;41.92;18.30;;;9.40;74.50;;;;;;5036265;28;20022;-79
2022/03/31 03:41:41;;;;;;;44.47;19.55;;;9.50;74.40;;;;;;5034941;28;20529;-79
2022/03/31 03:44:07;;;;;;;39.55;19.50;;;9.30;74.60;;;;;;5038667;28;20025;-79
2022/03/31 03:46:33;;;;;;;48.38;19.90;;;9.30;74.60;;;;;;5036203;28;20079;-81
2022/03/31 03:48:58;;;;;;;49.17;19.48;;;9.30;74.20;;;;;;5037185;28;20064;-78
2022/03/31 03:51:24;;;;;;;44.65;19.17;;;9.30;74.30;;;;;;5036286;28;20136;-80
2022/03/31 03:53:52;;;;;;;38.78;17.92;;;9.30;74.30;;;;;;5034703;28;20052;-81
2022/03/31 03:56:18;;;;;;;49.97;21.23;;;9.30;74.40;;;;;;5034668;28;20037;-83
2022/03/31 03:58:44;;;;;;;45.85;21.05;;;9.30;74.30;;;;;;5036038;28;20483;-79
2022/03/31 04:01:09;;;;;;;51.45;21.48;;;9.30;73.60;;;;;;5055529;28;20025;-78
2022/03/31 04:03:36;;;;;;;41.95;19.90;;;9.30;74.20;;;;;;5055939;28;20574;-79
2022/03/31 04:06:02;;;;;;;40.88;19.45;;;9.30;74.00;;;;;;5039450;28;20130;-82
2022/03/31 04:08:28;;;;;;;39.97;18.73;;;9.30;74.70;;;;;;5052702;28;20487;-82
2022/03/31 04:10:53;;;;;;;35.63;17.08;;;9.30;74.40;;;;;;5045505;28;20060;-83
2022/03/31 04:13:20;;;;;;;37.25;17.85;;;9.30;74.40;;;;;;5043942;28;20041;-81
2022/03/31 04:15:46;;;;;;;40.35;18.45;;;9.30;75.00;;;;;;5035110;28;20034;-85
2022/03/31 04:18:12;;;;;;;42.17;18.55;;;9.20;74.90;;;;;;5039041;28;20341;-80
2022/03/31 04:20:37;;;;;;;39.72;17.83;;;9.20;74.80;;;;;;5041313;28;20029;-80
2022/03/31 04:23:04;;;;;;;35.83;16.27;;;9.20;74.60;;;;;;5033481;28;20029;-80
2022/03/31 04:25:29;;;;;;;44.70;18.70;;;9.20;74.90;;;;;;5034546;28;20033;-80
2022/03/31 04:27:55;;;;;;;38.47;16.90;;;9.30;75.00;;;;;;5035044;28;20029;-80
2022/03/31 04:30:21;;;;;;;35.47;18.13;;;9.30;74.80;;;;;;5035010;28;20036;-80
2022/03/31 04:32:48;;;;;;;35.58;15.45;;;9.40;74.60;;;;;;5035220;28;20022;-79
2022/03/31 04:35:14;;;;;;;34.60;16.27;;;9.30;74.30;;;;;;5034029;28;20029;-81
2022/03/31 04:37:40;;;;;;;33.47;14.90;;;9.40;74.50;;;;;;5036003;28;20033;-81
2022/03/31 04:40:08;;;;;;;36.75;17.02;;;9.40;74.40;;;;;;5042342;28;20108;-83
2022/03/31 04:42:34;;;;;;;38.10;17.48;;;9.40;74.20;;;;;;5031369;28;20025;-79
2022/03/31 04:45:04;;;;;;;39.38;16.65;;;9.50;74.10;;;;;;5031559;28;20032;-80
2022/03/31 04:47:30;;;;;;;34.35;17.60;;;9.50;73.60;;;;;;5038695;28;20025;-80
2022/03/31 04:49:57;;;;;;;36.65;16.85;;;9.50;74.10;;;;;;5051056;28;20108;-78
2022/03/31 04:52:23;;;;;;;32.70;17.15;;;9.50;74.70;;;;;;5050006;28;20017;-78
2022/03/31 04:54:48;;;;;;;36.17;17.48;;;9.40;74.40;;;;;;5035205;28;20138;-78
2022/03/31 04:57:21;;;;;;;42.30;18.23;;;9.40;74.60;;;;;;5035660;28;20049;-80
2022/03/31 04:59:47;;;;;;;34.00;15.43;;;9.40;74.80;;;;;;5043744;28;20028;-80
2022/03/31 05:02:13;;;;;;;42.60;17.77;;;9.40;74.80;;;;;;5053911;28;20044;-81
2022/03/31 05:04:40;;;;;;;35.33;17.10;;;9.40;74.70;;;;;;5051680;28;20025;-89
2022/03/31 05:07:06;;;;;;;41.28;17.75;;;9.40;74.80;;;;;;5048641;28;20087;-84
2022/03/31 05:09:32;;;;;;;38.08;17.17;;;9.50;74.60;;;;;;5045425;28;20033;-85
2022/03/31 05:11:57;;;;;;;37.03;16.23;;;9.50;74.60;;;;;;5044117;28;20021;-85
2022/03/31 05:14:23;;;;;;;38.60;18.02;;;9.40;75.10;;;;;;5054850;28;20029;-85
2022/03/31 05:16:49;;;;;;;38.10;17.13;;;9.30;75.40;;;;;;5042729;28;20045;-84
2022/03/31 05:19:15;;;;;;;37.03;16.77;;;9.30;75.30;;;;;;5034747;28;20109;-85
2022/03/31 05:21:41;;;;;;;34.47;16.95;;;9.20;74.80;;;;;;5033366;28;20045;-85
2022/03/31 05:24:06;;;;;;;40.67;18.02;;;9.20;75.20;;;;;;5034779;28;20522;-85
2022/03/31 05:26:32;;;;;;;41.33;17.50;;;9.20;75.20;;;;;;5035049;28;20124;-87
2022/03/31 05:28:58;;;;;;;33.25;16.98;;;9.20;75.30;;;;;;5033878;28;20080;-85
2022/03/31 05:31:23;;;;;;;35.75;16.77;;;9.00;75.70;;;;;;5034871;28;20037;-85
2022/03/31 05:33:49;;;;;;;35.17;15.75;;;9.00;75.80;;;;;;5034544;28;20029;-86
2022/03/31 05:36:15;;;;;;;39.65;15.80;;;8.90;75.90;;;;;;5034705;28;20029;-85
2022/03/31 05:38:40;;;;;;;32.38;14.43;;;8.80;76.40;;;;;;5053805;28;20068;-86
2022/03/31 05:41:06;;;;;;;35.05;16.10;;;8.80;76.20;;;;;;5054833;28;20050;-86
2022/03/31 05:43:32;;;;;;;39.28;16.45;;;8.80;75.90;;;;;;5039566;28;20113;-86
2022/03/31 05:45:57;;;;;;;34.42;16.85;;;8.80;76.40;;;;;;5034986;28;20033;-85
2022/03/31 05:48:23;;;;;;;34.35;16.17;;;8.80;76.00;;;;;;5041935;28;20075;-85
2022/03/31 05:50:49;;;;;;;37.85;15.65;;;8.90;75.80;;;;;;5034751;28;20028;-85
2022/03/31 05:53:15;;;;;;;35.53;16.13;;;8.90;75.50;;;;;;5034862;28;20024;-85
2022/03/31 05:55:41;;;;;;;28.45;14.93;;;8.90;75.30;;;;;;5034902;28;20037;-87
2022/03/31 05:58:08;;;;;;;32.92;14.30;;;8.90;75.50;;;;;;5035267;28;20044;-86
2022/03/31 06:00:34;;;;;;;31.98;15.77;;;8.90;75.50;;;;;;5037096;28;20491;-86
2022/03/31 06:02:59;;;;;;;34.08;15.00;;;8.90;75.30;;;;;;5038267;28;20435;-85
2022/03/31 06:05:25;;;;;;;29.98;13.85;;;8.90;75.10;;;;;;5037714;28;20299;-87
2022/03/31 06:07:52;;;;;;;32.28;14.57;;;8.80;75.10;;;;;;5038251;28;20025;-87
2022/03/31 06:10:19;;;;;;;25.20;12.75;;;8.80;75.60;;;;;;5036825;28;20022;-86
2022/03/31 06:12:45;;;;;;;33.38;13.75;;;8.70;75.60;;;;;;5037346;28;20498;-86
2022/03/31 06:15:11;;;;;;;30.48;12.93;;;8.60;76.30;;;;;;5037188;28;20502;-86
2022/03/31 06:17:40;;;;;;;29.33;14.18;;;8.60;76.30;;;;;;5037225;28;20037;-86
2022/03/31 06:20:07;;;;;;;24.60;11.75;;;8.60;76.40;;;;;;5038021;28;20543;-86
2022/03/31 06:22:33;;;;;;;26.08;11.98;;;8.70;76.00;;;;;;5040289;28;20041;-81
2022/03/31 06:29:06;;;;;;;27.13;11.93;;;8.50;76.60;;;;;;5109997;27;20934;-84
2022/03/31 06:31:32;;;;;;;24.02;11.75;;;8.20;77.80;;;;;;5112706;28;20024;-86
2022/03/31 06:33:58;;;;;;;22.23;11.43;;;8.30;78.20;;;;;;5092625;28;20102;-82
2022/03/31 06:36:23;;;;;;;22.42;11.55;;;8.30;78.50;;;;;;5094219;28;20016;-86
2022/03/31 06:38:49;;;;;;;20.92;10.98;;;8.50;78.40;;;;;;5112174;28;20035;-85
2022/03/31 06:41:17;;;;;;;26.58;12.38;;;8.60;78.30;;;;;;5091777;28;20026;-88
2022/03/31 06:43:45;;;;;;;29.25;12.73;;;8.60;78.10;;;;;;5111733;28;20494;-90
2022/03/31 06:46:12;;;;;;;27.52;12.45;;;8.80;77.30;;;;;;5107028;28;20030;-90
2022/03/31 06:48:41;;;;;;;24.65;11.80;;;8.90;77.00;;;;;;5086800;28;20024;-90
2022/03/31 06:51:08;;;;;;;20.65;10.85;;;9.00;76.70;;;;;;5093661;28;20019;-90
2022/03/31 06:53:36;;;;;;;22.40;11.52;;;9.10;76.30;;;;;;5095216;28;20050;-90
2022/03/31 06:56:06;;;;;;;25.45;11.15;;;9.20;75.90;;;;;;5088546;28;20024;-88
2022/03/31 06:58:32;;;;;;;23.20;10.75;;;9.10;76.10;;;;;;5074657;28;20032;-88
2022/03/31 07:00:58;;;;;;;21.55;9.60;;;9.00;76.40;;;;;;5095412;28;20028;-89
2022/03/31 07:03:24;;;;;;;21.52;10.65;;;9.00;76.60;;;;;;5094741;28;20035;-88
2022/03/31 07:05:49;;;;;;;23.23;10.25;;;9.10;76.40;;;;;;5094858;28;20028;-89
2022/03/31 07:08:15;;;;;;;21.08;9.85;;;9.20;75.80;;;;;;5111864;28;20034;-89
2022/03/31 07:10:41;;;;;;;20.60;9.80;;;9.20;75.50;;;;;;5076194;28;20032;-90
2022/03/31 07:13:07;;;;;;;18.38;9.18;;;9.30;75.60;;;;;;5112490;28;20024;-89
2022/03/31 07:15:33;;;;;;;22.10;9.52;;;9.50;75.20;;;;;;5103774;28;20012;-89
2022/03/31 07:18:03;;;;;;;17.17;8.52;;;9.60;75.00;;;;;;5095169;28;20032;-90
2022/03/31 07:20:30;;;;;;;20.25;8.30;;;9.70;74.40;;;;;;5095103;28;20028;-90
2022/03/31 07:22:56;;;;;;;17.30;8.20;;;9.70;74.50;;;;;;5100033;28;20038;-85
2022/03/31 07:25:22;;;;;;;15.20;7.53;;;9.70;74.70;;;;;;5102619;28;20016;-85
2022/03/31 07:27:49;;;;;;;13.20;7.25;;;9.80;74.60;;;;;;5073029;28;20143;-85
2022/03/31 07:30:17;;;;;;;17.33;7.13;;;9.70;74.60;;;;;;5091377;28;20099;-84
2022/03/31 07:32:58;;;;;;;13.48;7.55;;;9.70;74.70;;;;;;5091185;28;20111;-84
2022/03/31 07:35:26;;;;;;;13.40;7.45;;;9.60;74.90;;;;;;5073371;28;20085;-85
2022/03/31 07:37:54;;;;;;;13.23;7.20;;;9.60;74.90;;;;;;5073022;28;20036;-84
2022/03/31 07:40:22;;;;;;;15.50;6.97;;;9.40;75.00;;;;;;5078484;28;20028;-84
2022/03/31 07:42:48;;;;;;;13.40;6.75;;;9.40;75.20;;;;;;5077982;28;20491;-85
2022/03/31 07:45:14;;;;;;;11.65;6.50;;;9.30;75.50;;;;;;5077741;28;20027;-84
2022/03/31 07:47:41;;;;;;;11.32;6.53;;;9.40;75.10;;;;;;5075571;28;20443;-85
2022/03/31 07:50:09;;;;;;;12.07;5.75;;;9.30;75.00;;;;;;5075988;28;20452;-85
2022/03/31 07:52:35;;;;;;;10.60;6.60;;;9.30;75.10;;;;;;5077727;28;20078;-85
2022/03/31 07:55:02;;;;;;;13.15;6.15;;;9.40;75.10;;;;;;5077450;28;20035;-85
2022/03/31 07:57:27;;;;;;;9.52;5.50;;;9.50;74.80;;;;;;5093212;28;20029;-85
2022/03/31 07:59:53;;;;;;;12.10;5.68;;;9.60;74.30;;;;;;5108379;27;20031;-85
2022/03/31 08:02:19;;;;;;;12.15;6.50;;;9.80;74.30;;;;;;5096556;28;20060;-85
2022/03/31 08:04:44;;;;;;;10.40;6.38;;;10.00;73.60;;;;;;5095894;28;20077;-84
2022/03/31 08:07:10;;;;;;;14.13;5.38;;;10.10;73.00;;;;;;5097576;28;20043;-85
2022/03/31 08:09:35;;;;;;;8.13;4.85;;;10.20;72.60;;;;;;5093774;28;20099;-85
2022/03/31 08:12:01;;;;;;;8.60;4.97;;;10.20;72.00;;;;;;5115186;27;20059;-86
2022/03/31 08:14:27;;;;;;;9.07;5.65;;;10.20;71.70;;;;;;5097624;28;20032;-85
2022/03/31 08:16:53;;;;;;;11.88;5.30;;;10.10;72.40;;;;;;5096054;28;20028;-85
2022/03/31 08:19:19;;;;;;;8.65;4.57;;;10.30;72.00;;;;;;5079607;28;20043;-85
2022/03/31 08:21:47;;;;;;;8.30;4.45;;;10.30;71.80;;;;;;5076064;28;20012;-85
2022/03/31 08:24:13;;;;;;;9.75;4.40;;;10.10;70.90;;;;;;5059532;28;20040;-85
2022/03/31 08:26:43;;;;;;;6.60;3.88;;;10.00;71.30;;;;;;5087416;28;20481;-84
2022/03/31 08:29:11;;;;;;;8.25;4.25;;;9.70;70.50;;;;;;5079040;28;20040;-85
2022/03/31 08:31:39;;;;;;;9.65;5.47;;;9.70;70.70;;;;;;5097193;28;20505;-85
2022/03/31 08:34:05;;;;;;;7.05;4.43;;;9.60;70.10;;;;;;5069499;28;20033;-84
2022/03/31 08:36:31;;;;;;;11.43;4.25;;;9.70;70.40;;;;;;5092232;28;20051;-85
2022/03/31 08:38:58;;;;;;;8.55;4.32;;;9.70;70.70;;;;;;5076993;28;20025;-85
2022/03/31 08:41:26;;;;;;;8.65;4.20;;;9.70;70.50;;;;;;5067609;28;20507;-85
2022/03/31 08:43:52;;;;;;;7.25;3.58;;;9.80;70.80;;;;;;5076494;28;20025;-86
2022/03/31 08:46:18;;;;;;;9.20;3.85;;;9.80;70.60;;;;;;5058318;28;20028;-85
2022/03/31 08:48:44;;;;;;;5.97;3.45;;;9.80;71.00;;;;;;5092919;28;20390;-84
2022/03/31 08:51:10;;;;;;;5.18;3.63;;;9.90;70.80;;;;;;5075617;28;20036;-86
2022/03/31 08:53:36;;;;;;;9.48;3.58;;;9.80;71.20;;;;;;5076600;28;20021;-85
2022/03/31 08:56:04;;;;;;;7.93;3.88;;;9.80;70.90;;;;;;5091959;28;20407;-85
2022/03/31 08:58:30;;;;;;;5.75;3.90;;;9.70;71.70;;;;;;5076152;28;20037;-84
2022/03/31 09:00:56;;;;;;;7.18;3.75;;;9.60;72.50;;;;;;5094304;28;20055;-86
2022/03/31 09:03:36;;;;;;;5.90;3.67;;;9.50;71.90;;;;;;5082908;28;20066;-85
2022/03/31 09:06:03;;;;;;;;;;;9.60;72.70;;;;;;5076654;28;20016;-86
2022/03/31 09:08:30;;;;;;;4.55;3.00;;;9.70;72.60;;;;;;5075971;28;20331;-85
2022/03/31 09:11:00;;;;;;;4.50;3.00;;;9.80;72.50;;;;;;5111739;28;20028;-85
2022/03/31 09:13:28;;;;;;;5.33;3.50;;;9.70;71.10;;;;;;5078638;28;20032;-85
2022/03/31 09:16:03;;;;;;;5.43;2.92;;;9.70;72.10;;;;;;5095028;28;20035;-85
2022/03/31 09:18:31;;;;;;;7.07;3.08;;;9.70;71.60;;;;;;5085012;28;20039;-84
2022/03/31 09:20:58;;;;;;;4.35;2.53;;;9.70;71.20;;;;;;5087224;28;20024;-85
2022/03/31 09:23:32;;;;;;;3.28;2.20;;;9.40;71.40;;;;;;5079038;28;20052;-86
2022/03/31 09:26:07;;;;;;;4.35;2.53;;;9.20;72.40;;;;;;5075762;28;20031;-85
2022/03/31 09:28:34;;;;;;;2.95;1.90;;;9.10;73.60;;;;;;5057631;28;20087;-85
2022/03/31 09:30:59;;;;;;;4.07;2.28;;;8.90;76.00;;;;;;5057890;28;20078;-85
2022/03/31 09:33:33;;;;;;;5.10;2.13;;;8.70;75.90;;;;;;5074351;28;20040;-84
2022/03/31 09:36:00;;;;;;;2.85;1.95;;;8.60;77.30;;;;;;5057922;28;20047;-85
2022/03/31 09:38:26;;;;;;;3.08;2.00;;;8.50;77.00;;;;;;5075579;28;20111;-85
2022/03/31 09:40:53;;;;;;;1.10;1.00;;;8.40;76.30;;;;;;5073586;28;20499;-84
2022/03/31 09:43:19;;;;;;;1.90;1.38;;;8.00;80.80;;;;;;5075892;28;20033;-83
2022/03/31 09:45:45;;;;;;;1.77;1.05;;;7.60;79.80;;;;;;5074171;28;20470;-84
2022/03/31 09:48:23;;;;;;;1.83;1.33;;;7.70;80.20;;;;;;5085377;28;20408;-83
2022/03/31 09:50:49;;;;;;;1.20;0.93;;;7.70;80.20;;;;;;5057367;28;20024;-83
2022/03/31 09:53:15;;;;;;;1.42;1.00;;;7.40;79.90;;;;;;5106456;28;20028;-83
2022/03/31 09:55:43;;;;;;;1.00;0.80;;;7.40;79.40;;;;;;5095537;28;20022;-84
2022/03/31 09:58:14;;;;;;;1.50;0.95;;;7.40;78.50;;;;;;5065409;28;20494;-84
2022/03/31 10:00:40;;;;;;;1.50;1.40;;;7.20;78.90;;;;;;5119248;27;20023;-83
2022/03/31 10:03:06;;;;;;;1.90;1.60;;;7.10;81.70;;;;;;5081758;28;20052;-83
2022/03/31 10:05:32;;;;;;;1.75;1.38;;;7.00;81.20;;;;;;5057126;28;20115;-82
2022/03/31 10:07:59;;;;;;;2.08;1.20;;;7.00;80.20;;;;;;5075137;28;20064;-83
2022/03/31 10:10:27;;;;;;;1.83;1.55;;;7.00;81.20;;;;;;5074994;28;20394;-83
2022/03/31 10:13:03;;;;;;;1.15;0.93;;;7.30;80.90;;;;;;5093276;28;20028;-83
2022/03/31 10:15:35;;;;;;;4.43;1.38;;;7.30;79.90;;;;;;5093760;28;20031;-83
2022/03/31 10:18:01;;;;;;;1.75;1.30;;;7.40;79.00;;;;;;5077123;28;20051;-83
2022/03/31 10:20:27;;;;;;;2.67;1.50;;;7.30;78.40;;;;;;5058133;28;20032;-83
2022/03/31 10:25:46;;;;;;;2.63;1.40;;;7.10;78.30;;;;;;5075321;28;20616;-83
2022/03/31 10:28:18;;;;;;;1.63;1.10;;;7.20;77.40;;;;;;5090266;28;20052;-83
2022/03/31 10:30:55;;;;;;;3.38;1.15;;;7.30;76.40;;;;;;5090672;28;20033;-83
2022/03/31 10:33:33;;;;;;;1.33;1.20;;;7.40;76.90;;;;;;5075023;28;20016;-83
2022/03/31 10:36:09;;;;;;;1.10;1.00;;;7.40;76.20;;;;;;5074792;28;20025;-82
2022/03/31 10:38:35;;;;;;;1.38;1.17;;;7.20;75.60;;;;;;5083521;28;20027;-83
2022/03/31 10:41:03;;;;;;;1.00;0.90;;;7.10;76.00;;;;;;5095255;28;20093;-83
2022/03/31 10:43:31;;;;;;;2.10;1.30;;;7.40;76.10;;;;;;5110669;28;20020;-84
2022/03/31 10:46:00;;;;;;;2.10;1.10;;;7.40;73.90;;;;;;5076930;28;20031;-83
2022/03/31 10:48:30;;;;;;;2.00;1.27;;;7.10;75.20;;;;;;5084487;28;20028;-84
2022/03/31 10:51:05;;;;;;;1.80;1.20;;;7.00;74.50;;;;;;5090087;28;20681;-83
2022/03/31 10:53:32;;;;;;;1.30;1.20;;;6.90;76.00;;;;;;5090628;28;20056;-83
2022/03/31 10:55:58;;;;;;;2.75;1.95;;;7.00;75.90;;;;;;5090475;28;20033;-83
2022/03/31 10:58:29;;;;;;;1.60;1.35;;;7.20;76.60;;;;;;5074486;28;20504;-85
2022/03/31 11:01:02;;;;;;;2.88;1.52;;;7.10;77.50;;;;;;5123087;28;20027;-83
2022/03/31 11:03:28;;;;;;;2.20;1.20;;;7.00;77.20;;;;;;5076035;28;20452;-82
2022/03/31 11:06:01;;;;;;;2.50;1.35;;;6.70;80.90;;;;;;5074986;28;20114;-82
2022/03/31 11:08:26;;;;;;;1.35;1.17;;;6.50;83.00;;;;;;5090409;28;20032;-83
2022/03/31 11:10:53;;;;;;;1.30;1.20;;;6.70;84.10;;;;;;5077153;28;20032;-82
2022/03/31 11:13:34;;;;;;;2.38;1.40;;;6.60;81.30;;;;;;5093690;28;20028;-82
2022/03/31 11:16:01;;;;;;;1.85;1.45;;;6.90;80.80;;;;;;5098246;28;20028;-82
2022/03/31 11:18:27;;;;;;;2.20;1.52;;;6.90;79.90;;;;;;5078307;28;20021;-83
2022/03/31 11:20:57;;;;;;;2.63;1.50;;;7.00;79.60;;;;;;5094131;28;20111;-83
2022/03/31 11:23:24;;;;;;;2.95;1.70;;;6.80;81.90;;;;;;5078308;28;20017;-82
2022/03/31 11:25:50;;;;;;;4.82;1.50;;;6.70;82.50;;;;;;5078191;28;20036;-81
2022/03/31 11:28:16;;;;;;;2.75;1.67;;;6.80;80.90;;;;;;5079272;28;20456;-82
2022/03/31 11:30:46;;;;;;;1.90;1.70;;;7.00;81.40;;;;;;5098304;28;20464;-83
2022/03/31 11:33:13;;;;;;;1.73;1.52;;;6.70;79.50;;;;;;5098531;28;20495;-82
2022/03/31 11:35:39;;;;;;;2.75;2.13;;;7.00;80.30;;;;;;5095035;28;20040;-83
2022/03/31 11:38:11;;;;;;;3.65;1.85;;;7.10;78.30;;;;;;5077710;28;20487;-83
2022/03/31 11:40:40;;;;;;;1.63;1.50;;;7.00;78.90;;;;;;5077701;28;20526;-83
2022/03/31 11:43:12;;;;;;;2.70;1.60;;;7.00;81.10;;;;;;5078158;28;20371;-83
2022/03/31 11:45:43;;;;;;;2.58;1.75;;;7.00;79.20;;;;;;5077806;28;20029;-83
2022/03/31 11:48:10;;;;;;;2.15;1.60;;;6.80;79.30;;;;;;5086390;28;20020;-83
2022/03/31 11:50:38;;;;;;;3.45;1.85;;;6.90;80.50;;;;;;5093302;28;20517;-83
2022/03/31 11:53:23;;;;;;;2.88;2.00;;;7.10;80.30;;;;;;5093284;28;20029;-83
2022/03/31 11:56:16;;;;;;;2.95;1.60;;;7.00;78.50;;;;;;5093148;28;20040;-83
2022/03/31 11:58:55;;;;;;;3.05;1.30;;;7.10;80.20;;;;;;5077412;28;20035;-83
2022/03/31 12:01:34;;;;;;;1.65;1.23;;;7.20;77.80;;;;;;5096562;28;20025;-83
2022/03/31 12:03:59;;;;;;;1.52;1.40;;;7.20;76.50;;;;;;5087245;28;20107;-82
2022/03/31 12:06:26;;;;;;;3.42;1.75;;;7.00;78.80;;;;;;5093158;28;20063;-82
2022/03/31 12:08:56;;;;;;;3.70;1.50;;;7.00;80.50;;;;;;5077111;28;20788;-82
2022/03/31 12:11:24;;;;;;;2.00;1.30;;;6.70;79.80;;;;;;5103619;27;20028;-82
2022/03/31 12:13:52;;;;;;;2.85;1.80;;;6.80;80.80;;;;;;5096246;28;20028;-82
2022/03/31 12:16:20;;;;;;;3.28;1.63;;;6.70;82.90;;;;;;5097684;28;20062;-82
2022/03/31 12:18:53;;;;;;;2.45;1.52;;;6.70;83.50;;;;;;5078972;28;20619;-82
2022/03/31 12:21:19;;;;;;;2.83;1.60;;;7.00;82.50;;;;;;5087858;28;20059;-82
2022/03/31 12:23:45;;;;;;;3.55;1.60;;;7.00;79.60;;;;;;5077018;28;20017;-83
2022/03/31 12:26:18;;;;;;;4.90;1.73;;;6.70;78.00;;;;;;5058767;28;20092;-83
2022/03/31 12:28:46;;;;;;;2.72;1.50;;;6.70;78.40;;;;;;5058532;28;20052;-82
2022/03/31 12:31:23;;;;;;;2.85;1.45;;;6.80;79.60;;;;;;5092576;28;20082;-82
2022/03/31 12:33:53;;;;;;;3.33;1.73;;;7.00;80.70;;;;;;5076683;28;20025;-82
2022/03/31 12:36:32;;;;;;;3.38;2.00;;;6.90;77.00;;;;;;5092511;28;20036;-82
2022/03/31 12:38:59;;;;;;;2.03;1.60;;;7.10;80.10;;;;;;5076590;28;20076;-82
2022/03/31 12:41:26;;;;;;;3.85;1.98;;;6.70;78.00;;;;;;5076632;28;20043;-82
2022/03/31 12:44:20;;;;;;;2.88;1.90;;;6.70;78.90;;;;;;5076390;28;20056;-82
2022/03/31 12:46:54;;;;;;;3.80;2.13;;;6.90;79.90;;;;;;5077923;28;20024;-82
2022/03/31 12:49:23;;;;;;;3.75;2.28;;;6.90;78.10;;;;;;5078883;28;20028;-83
2022/03/31 12:52:00;;;;;;;1.80;1.58;;;7.10;77.30;;;;;;5076702;28;20488;-83
2022/03/31 12:54:38;;;;;;;2.45;1.58;;;6.80;76.20;;;;;;5076657;28;20025;-82
2022/03/31 12:57:21;;;;;;;2.17;1.60;;;7.10;76.30;;;;;;5076454;28;20024;-82